This is the latest recevied weather packets stored in our database for station/object G6LTT-13. If no packets are shown the sender has not sent any weather packets the latest 10 day(s).
| Time | Temp. | Humidity | Pressure | Rain* | Wind** | Luminosity | Snow |
|---|---|---|---|---|---|---|---|
| 1777905280 | 14.44° C | 75% | 1042.8 hPa | 0 mm | - | - | - |
| 1777903480 | 15° C | 75% | 1042.9 hPa | 0 mm | - | - | - |
| 1777901680 | 15° C | 75% | 1042.9 hPa | 0 mm | - | - | - |
| 1777899880 | 15.56° C | 72% | 1042.7 hPa | 0 mm | - | - | - |
| 1777898080 | 15.56° C | 70% | 1042.6 hPa | 0 mm | - | - | - |
| 1777896280 | 15.56° C | 72% | 1042.6 hPa | 0 mm | - | - | - |
| 1777894480 | 14.44° C | 76% | 1043.1 hPa | 0 mm | - | - | - |
| 1777892680 | 13.89° C | 76% | 1043.2 hPa | 0 mm | - | - | - |
| 1777890880 | 13.33° C | 78% | 1043.2 hPa | 0 mm | - | - | - |
| 1777889080 | 12.78° C | 80% | 1043.1 hPa | 0 mm | - | - | - |
| 1777887280 | 12.78° C | 81% | 1042.9 hPa | 0 mm | - | - | - |
| 1777885480 | 12.22° C | 83% | 1042.9 hPa | 0 mm | - | - | - |
| 1777883680 | 11.67° C | 86% | 1042.6 hPa | 0 mm | - | - | - |
| 1777881880 | 11.67° C | 88% | 1042.4 hPa | 0 mm | - | - | - |
| 1777880080 | 11.11° C | 90% | 1042.6 hPa | 0 mm | - | - | - |
| 1777878280 | 11.11° C | 90% | 1042.3 hPa | 0 mm | - | - | - |
| 1777876480 | 11.11° C | 90% | 1041.8 hPa | 0 mm | - | - | - |
| 1777874680 | 11.11° C | 91% | 1041.5 hPa | 0 mm | - | - | - |
| 1777872880 | 11.11° C | 91% | 1041.3 hPa | 0 mm | - | - | - |
| 1777871080 | 11.67° C | 90% | 1040.7 hPa | 0 mm | - | - | - |
| 1777869280 | 11.67° C | 89% | 1040.4 hPa | 0 mm | - | - | - |
| 1777867480 | 11.67° C | 90% | 1040.4 hPa | 0 mm | - | - | - |
| 1777863880 | 11.67° C | 91% | 1040.2 hPa | 0 mm | - | - | - |
| 1777862080 | 11.67° C | 91% | 1040 hPa | 0 mm | - | - | - |
| 1777860280 | 11.67° C | 91% | 1040.1 hPa | 0 mm | - | - | - |
* Rain latest hour (hover to see other rain measurements)
** Current wind speed in m/s (hover to see current wind gust speed)